createdAt,value
2022-10-31T00:28:57.192Z,7
2022-10-31T00:57:52.182Z,7
2022-10-31T01:26:46.841Z,7
2022-10-31T01:55:38.330Z,7
2022-10-31T02:24:40.928Z,7
2022-10-31T02:53:39.526Z,6
2022-10-31T03:22:40.375Z,7
2022-10-31T03:51:35.781Z,6
2022-10-31T04:20:36.113Z,7
2022-10-31T04:49:32.834Z,6
2022-10-31T05:18:22.274Z,6
2022-10-31T05:47:17.390Z,6
2022-10-31T06:16:17.347Z,7
2022-10-31T06:45:17.615Z,6
2022-10-31T07:13:48.403Z,6
2022-10-31T07:42:25.783Z,6
2022-10-31T08:11:06.329Z,10
2022-10-31T08:39:45.798Z,10
2022-10-31T09:08:17.479Z,10
2022-10-31T09:36:57.500Z,9
2022-10-31T10:05:45.159Z,10
2022-10-31T10:34:39.162Z,10
2022-10-31T11:03:09.447Z,10
2022-10-31T11:31:59.921Z,17
2022-10-31T12:00:43.949Z,16
2022-10-31T12:29:44.050Z,16
2022-10-31T12:58:38.860Z,16
2022-10-31T13:27:24.804Z,16
2022-10-31T13:56:14.434Z,15
2022-10-31T14:24:56.610Z,15
2022-10-31T14:53:35.276Z,14
2022-10-31T15:22:15.378Z,13
2022-10-31T15:50:42.655Z,13
2022-10-31T16:19:06.909Z,14
2022-10-31T16:47:32.159Z,13
2022-10-31T17:15:58.478Z,13
2022-10-31T17:44:18.175Z,13
2022-10-31T18:12:48.325Z,13
2022-10-31T18:41:16.328Z,13
2022-10-31T19:09:47.064Z,12
2022-10-31T19:38:20.532Z,12
2022-10-31T20:06:54.254Z,12
2022-10-31T20:35:23.331Z,12
2022-10-31T21:03:51.972Z,12
2022-10-31T21:32:24.169Z,11
2022-10-31T22:01:00.419Z,11
2022-10-31T22:29:34.912Z,12
2022-10-31T22:58:06.902Z,12
2022-10-31T23:26:35.662Z,11
2022-10-31T23:55:07.033Z,12
